Terminal Aerodrome Forecast
Issued by NWS

Home | Current Version | Previous Version | Text Only | Print | Product List | Glossary On
Versions: 1 2 3 4 5 6 7 8 9 10 11 12 13 14 15 16 17
000
FTUS41 KBGM 232341
TAFRME
TAF
KRME 232341Z 2400/2424 28005KT P6SM BKN050
     FM240200 VRB03KT P6SM FEW025 BKN045
     FM240900 12005KT P6SM OVC015
      TEMPO 2410/2414 3SM -SHRA BR OVC008
     FM241800 17010G20KT P6SM BKN040=

USA.gov is the U.S. government's official web portal to all federal, state and local government web resources and services.